Terminal Aerodrome Forecast
Issued by NWS St Louis, MO

Home | Current Version | Previous Version | Text Only | Print | Product List | Glossary On
Versions: 1 2 3 4 5 6 7 8 9 10 11 12 13
906
FTUS43 KLSX 211533 AAA
TAFCOU
TAF AMD
KCOU 211533Z 2116/2212 28008KT P6SM BKN200
     FM211700 32014G22KT P6SM OVC100
     FM212300 34010G16KT P6SM SKC
     FM220100 35007KT P6SM SKC=

USA.gov is the U.S. government's official web portal to all federal, state and local government web resources and services.